la region d' Aire sur la Lys (62) - B Senior D

Date : 19/09/2015
Distance : 2,000 km

Place Nom Licence Catégorie Club Temps min/km CN à J-60 Points Différence Nouveau CN
1 GERBEAUX Emmanuelle 26838 D21 6205NO 0:12:45 6'22 4467 5075 +608 4808
2 MERCIER Agnès 23079 D21 5907NO 0:12:50 6'25 5213 5042 -171 5358
3 FLORENT Roxane 26927 D20 5907NO 0:13:11 6'35 4872 4908 +36 5030
4 DESRUMAUX Marie 14227 D35 5906NO 0:13:18 6'39 5488 4865 -623 5602
5 DUQUENNE Audrey 23885 D20 5907NO 0:13:29 6'44 5057 4799 -258 5116
6 DESRUMAUX Celine 15795 D40 5906NO 0:13:52 6'56 5042 4666 -376 5071
7 SAUVAGE Elsa 11434 D21 5907NO 0:14:05 7'02 3507 4595 +1088 3917
8 FINAS Celine 8445 D21 5907NO 0:14:06 7'03 5539 4589 -950 5553
9 SANCHEZ Marlene 15247 D35 6208NO 0:14:31 7'15 4627 4457 -170 4649
10 KIRILOV Aurélie 20629 D21 5906NO 0:14:32 7'16 4796 4452 -344 4815
11 VADUREL Pauline 19241 D21 5907NO 0:14:33 7'16 0 4447 4832
12 GIRARD Melissa 28118 D20 5907NO 0:14:59 7'29 4389 4319 -70 4859
13 LAUDE MAGALI 28688 D35 6208NO 0:15:07 7'33 3564 4281 +717 3819
14 ROBYN Laurence 10766 D45 5906NO 0:15:12 7'36 4523 4257 -266 4565
15 ROUX Catherine 13270 D45 6205NO 0:15:44 7'52 4269 4113 -156 4244
16 DESSAILLY Aurélie 26339 D35 5909NO 0:15:49 7'54 4366 4091 -275 4359
17 GUILMAIN Melanie 20572 D20 6208NO 0:16:13 8'06 3818 3990 +172 3892
18 LOTERIE Murielle 7044 D45 5907NO 0:16:26 8'13 3839 3938 +99 3926
19 ROLIN Charlotte 23947 D35 6208NO 0:16:33 8'16 3453 3910 +457 3547
20 CIRAUDO Andrea 15582 D21 5907NO 0:16:43 8'21 0 3871 3348
21 VIEQUE Karine 25018 D40 6208NO 0:16:53 8'26 3402 3833 +431 3607
22 GERBEAUX Marie-jeanne 22417 D60 6205NO 0:19:12 9'36 3516 3370 -146 3606
23 GOURLAIN Mathilde 18299 D20 6205NO 0:19:29 9'44 3213 3321 +108 3464
24 PRUVOST Virginie 25881 D40 6208NO 0:20:09 10'04 2377 3211 +834 2722
25 GOURLAIN Marguerite-marie 19155 D45 6205NO 0:20:29 10'14 3288 3159 -129 3182
26 PHILIPPS Marie Laure 28718 D50 6203NO 0:20:40 10'20 2116 3131 +1015 2116
27 PECQUEUR Sylvie 20425 D50 5906NO 0:20:48 10'24 3011 3111 +100 3092
28 LEFEVRE Lou 30950 D20 5907NO 0:21:07 10'33 2447 3064 +617 2828
29 JASKINA Catherine 28714 D50 6203NO 0:21:21 10'40 2345 3031 +686 2512
30 DEPERSIN Isabelle 17899 D40 5907NO 0:22:15 11'07 2557 2908 +351 3096
31 RYBARCZYK Emmanuelle 31442 D21 6203NO 0:22:19 11'09 2900 2219
32 BAUD Sandrine 27612 D40 6203NO 0:22:35 11'17 2628 2865 +237 2752
33 JACQUEMART Marina 28528 D21 5909NO 0:24:06 12'03 2496 2685 +189 2586
34 DEVIENNE Virginie 30570 D40 5906NO 0:24:57 12'28 1483 2593 +1110 1511
35 SENCE Marie-Pierre 29897 D40 5906NO 0:27:07 13'33 1705 2386 +681 2025
36 LEPOUTRE Mélanie 4836 D21 5907NO 0:27:20 13'40 6365 2367 -3998 5895
37 RIMETZ Marcelline 22235 D60 6208NO 0:28:03 14'01 2054 2307 +253 2129
38 VARIN Séverine 31497 D40 5906NO 0:28:05 14'02 2304 771
39 JUDAS Sylvaine 13635 D60 6208NO 0:28:58 14'29 1489 2234 +745 1751
40 BELLENGIER Sabine 25381 D40 6208NO 0:32:20 16'10 1746 2001 +255 1955
41 LUDEWIG-JAMES Carol 15894 D75 5907NO 0:40:18 20'09 1248 1606 +358 1214
42 DURIEZ Corinne 27971 D50 6203NO 0:42:36 21'18 2354 1519 -835 2452